Time;durP1;ratioP1;P1;durP2;ratioP2;P2;SDS_P1;SDS_P2;PMS_P1;PMS_P2;Temp;Humidity;BMP_temperature;BMP_pressure;BME280_temperature;BME280_humidity;BME280_pressure;Samples;Min_cycle;Max_cycle;Signal;HPM_P1;HPM_P2
2022/10/29 00:02:20;;;;;;;;;;;;;;;;;;5116549;27;19930;-57
2022/10/29 00:04:45;;;;;;;;;;;;;;;;;;5130672;27;19966;-58
2022/10/29 00:07:10;;;;;;;;;;;;;;;;;;5129912;27;20319;-57
2022/10/29 00:09:36;;;;;;;;;;;;;;;;;;5112050;27;19916;-57
2022/10/29 00:12:01;;;;;;;;;;;;;;;;;;5112280;28;19937;-57
2022/10/29 00:14:26;;;;;;;;;;;;;;;;;;5109656;28;19919;-57
2022/10/29 00:16:51;;;;;;;;;;;;;;;;;;5128592;27;19908;-57
2022/10/29 00:19:16;;;;;;;;;;;;;;;;;;5112458;27;20442;-57
2022/10/29 00:21:41;;;;;;;;;;;;;;;;;;5125852;27;19914;-57
2022/10/29 00:24:06;;;;;;;;;;;;;;;;;;5111702;28;19919;-56
2022/10/29 00:26:32;;;;;;;;;;;;;;;;;;5111770;27;19912;-57
2022/10/29 00:28:57;;;;;;;;;;;;;;;;;;5115621;27;19947;-57
2022/10/29 00:31:25;;;;;;;;;;;;;;;;;;5118682;27;19993;-57
2022/10/29 00:33:51;;;;;;;;;;;;;;;;;;5111758;28;19912;-57
2022/10/29 00:36:16;;;;;;;;;;;;;;;;;;5125808;27;20032;-56
2022/10/29 00:38:41;;;;;;;;;;;;;;;;;;5125788;27;19943;-56
2022/10/29 00:41:06;;;;;;;;;;;;;;;;;;5111651;27;19965;-56
2022/10/29 00:43:31;;;;;;;;;;;;;;;;;;5111327;28;19919;-56
2022/10/29 00:45:56;;;;;;;;;;;;;;;;;;5111677;27;19951;-56
2022/10/29 00:48:21;;;;;;;;;;;;;;;;;;5124302;27;20370;-57
2022/10/29 00:50:46;;;;;;;;;;;;;;;;;;5117644;27;19933;-57
2022/10/29 00:53:11;;;;;;;;;;;;;;;;;;5116522;27;19912;-56
2022/10/29 00:55:36;;;;;;;;;;;;;;;;;;5127011;27;19920;-56
2022/10/29 00:58:01;;;;;;;;;;;;;;;;;;5111245;28;20423;-57
2022/10/29 01:00:26;;;;;;;;;;;;;;;;;;5111309;28;19918;-56
2022/10/29 01:02:51;;;;;;;;;;;;;;;;;;5115936;27;19911;-56
2022/10/29 01:05:17;;;;;;;;;;;;;;;;;;5119594;27;19912;-56
2022/10/29 01:07:42;;;;;;;;;;;;;;;;;;5115506;28;20355;-56
2022/10/29 01:10:07;;;;;;;;;;;;;;;;;;5124161;28;19937;-56
2022/10/29 01:12:32;;;;;;;;;;;;;;;;;;5109003;28;19998;-56
2022/10/29 01:14:57;;;;;;;;;;;;;;;;;;5111089;28;19908;-57
2022/10/29 01:17:22;;;;;;;;;;;;;;;;;;5112701;28;19911;-56
2022/10/29 01:19:47;;;;;;;;;;;;;;;;;;5111153;28;19923;-57
2022/10/29 01:22:12;;;;;;;;;;;;;;;;;;5111170;28;19965;-56
2022/10/29 01:24:37;;;;;;;;;;;;;;;;;;5111154;28;19919;-57
2022/10/29 01:27:02;;;;;;;;;;;;;;;;;;5111243;28;20342;-56
2022/10/29 01:29:27;;;;;;;;;;;;;;;;;;5111084;28;19912;-56
2022/10/29 01:31:52;;;;;;;;;;;;;;;;;;5110557;28;19927;-56
2022/10/29 01:34:18;;;;;;;;;;;;;;;;;;5114931;28;19935;-57
2022/10/29 01:36:43;;;;;;;;;;;;;;;;;;5112017;28;20453;-57
2022/10/29 01:39:08;;;;;;;;;;;;;;;;;;5111230;28;20018;-56
2022/10/29 01:41:33;;;;;;;;;;;;;;;;;;5111329;28;19918;-56
2022/10/29 01:43:59;;;;;;;;;;;;;;;;;;5111108;28;19955;-56
2022/10/29 01:46:24;;;;;;;;;;;;;;;;;;5117873;28;20042;-56
2022/10/29 01:48:49;;;;;;;;;;;;;;;;;;5118059;28;19919;-56
2022/10/29 01:51:14;;;;;;;;;;;;;;;;;;5121302;28;19915;-57
2022/10/29 01:53:39;;;;;;;;;;;;;;;;;;5115008;28;20046;-57
2022/10/29 01:56:04;;;;;;;;;;;;;;;;;;5125176;28;19976;-57
2022/10/29 01:58:29;;;;;;;;;;;;;;;;;;5121975;28;19955;-57
2022/10/29 02:00:54;;;;;;;;;;;;;;;;;;5114872;28;19964;-56
2022/10/29 02:03:19;;;;;;;;;;;;;;;;;;5121671;28;19915;-56
2022/10/29 02:05:44;;;;;;;;;;;;;;;;;;5110619;28;20271;-57
2022/10/29 02:08:10;;;;;;;;;;;;;;;;;;5110548;28;20372;-56
2022/10/29 02:10:35;;;;;;;;;;;;;;;;;;5110792;28;20007;-56
2022/10/29 02:13:00;;;;;;;;;;;;;;;;;;5109909;28;19955;-57
2022/10/29 02:15:25;;;;;;;;;;;;;;;;;;5114673;27;19911;-56
2022/10/29 02:17:50;;;;;;;;;;;;;;;;;;5118861;27;20266;-57
2022/10/29 02:20:15;;;;;;;;;;;;;;;;;;5124323;27;19923;-57
2022/10/29 02:22:40;;;;;;;;;;;;;;;;;;5126541;27;19922;-57
2022/10/29 02:25:05;;;;;;;;;;;;;;;;;;5116344;27;19912;-57
2022/10/29 02:27:30;;;;;;;;;;;;;;;;;;5122638;27;19911;-57
2022/10/29 02:29:55;;;;;;;;;;;;;;;;;;5121437;27;19964;-57
2022/10/29 02:32:20;;;;;;;;;;;;;;;;;;5129420;27;19984;-57
2022/10/29 02:34:46;;;;;;;;;;;;;;;;;;5131723;27;20432;-57
2022/10/29 02:37:11;;;;;;;;;;;;;;;;;;5133928;27;19912;-55
2022/10/29 02:39:36;;;;;;;;;;;;;;;;;;5116128;27;19923;-57
2022/10/29 02:42:01;;;;;;;;;;;;;;;;;;5120511;27;20008;-56
2022/10/29 02:44:26;;;;;;;;;;;;;;;;;;5119729;27;19915;-58
2022/10/29 02:46:51;;;;;;;;;;;;;;;;;;5118558;27;20460;-57
2022/10/29 02:49:16;;;;;;;;;;;;;;;;;;5130774;27;19912;-57
2022/10/29 02:51:41;;;;;;;;;;;;;;;;;;5131140;27;19915;-57
2022/10/29 02:54:06;;;;;;;;;;;;;;;;;;5131630;27;20064;-57
2022/10/29 02:56:31;;;;;;;;;;;;;;;;;;5126687;27;20320;-55
2022/10/29 02:58:56;;;;;;;;;;;;;;;;;;5121186;27;19916;-56
2022/10/29 03:01:22;;;;;;;;;;;;;;;;;;5128855;27;19920;-56
2022/10/29 03:03:47;;;;;;;;;;;;;;;;;;5125689;27;19911;-56
2022/10/29 03:06:12;;;;;;;;;;;;;;;;;;5122869;27;20103;-57
2022/10/29 03:08:37;;;;;;;;;;;;;;;;;;5117698;27;19911;-57
2022/10/29 03:11:02;;;;;;;;;;;;;;;;;;5125549;27;19912;-57
2022/10/29 03:13:27;;;;;;;;;;;;;;;;;;5111315;28;20378;-57
2022/10/29 03:15:52;;;;;;;;;;;;;;;;;;5127048;27;20017;-57
2022/10/29 03:18:17;;;;;;;;;;;;;;;;;;5119665;27;19922;-57
2022/10/29 03:20:44;;;;;;;;;;;;;;;;;;5120716;27;19916;-57
2022/10/29 03:23:09;;;;;;;;;;;;;;;;;;5112853;27;19919;-58
2022/10/29 03:25:34;;;;;;;;;;;;;;;;;;5114358;27;20006;-57
2022/10/29 03:27:59;;;;;;;;;;;;;;;;;;5125425;27;20342;-57
2022/10/29 03:30:24;;;;;;;;;;;;;;;;;;5125928;27;20280;-57
2022/10/29 03:32:49;;;;;;;;;;;;;;;;;;5124692;27;20351;-57
2022/10/29 03:35:14;;;;;;;;;;;;;;;;;;5115203;27;20008;-57
2022/10/29 03:37:39;;;;;;;;;;;;;;;;;;5126660;27;20441;-57
2022/10/29 03:40:05;;;;;;;;;;;;;;;;;;5112665;28;19919;-58
2022/10/29 03:42:30;;;;;;;;;;;;;;;;;;5112571;28;19912;-57
2022/10/29 03:44:55;;;;;;;;;;;;;;;;;;5112948;28;20369;-58
2022/10/29 03:47:20;;;;;;;;;;;;;;;;;;5116625;27;19916;-57
2022/10/29 03:49:45;;;;;;;;;;;;;;;;;;5112523;27;19943;-58
2022/10/29 03:52:10;;;;;;;;;;;;;;;;;;5112295;28;20056;-57
2022/10/29 03:54:35;;;;;;;;;;;;;;;;;;5120125;27;19916;-57
2022/10/29 03:57:00;;;;;;;;;;;;;;;;;;5120688;27;20370;-57
2022/10/29 03:59:25;;;;;;;;;;;;;;;;;;5113848;27;19989;-58
2022/10/29 04:01:50;;;;;;;;;;;;;;;;;;5127020;27;19917;-57
2022/10/29 04:04:15;;;;;;;;;;;;;;;;;;5130692;27;19912;-57
2022/10/29 04:06:41;;;;;;;;;;;;;;;;;;5113300;27;19916;-57
2022/10/29 04:09:06;;;;;;;;;;;;;;;;;;5129716;27;19911;-57
2022/10/29 04:11:31;;;;;;;;;;;;;;;;;;5130639;27;20100;-57
2022/10/29 04:13:56;;;;;;;;;;;;;;;;;;5113993;27;19920;-56
2022/10/29 04:16:21;;;;;;;;;;;;;;;;;;5130948;27;19919;-57
2022/10/29 04:18:46;;;;;;;;;;;;;;;;;;5124936;27;19958;-57
2022/10/29 04:21:11;;;;;;;;;;;;;;;;;;5124335;27;19923;-58
2022/10/29 04:23:36;;;;;;;;;;;;;;;;;;5123015;27;20404;-57
2022/10/29 04:26:01;;;;;;;;;;;;;;;;;;5130196;27;19980;-57
2022/10/29 04:28:27;;;;;;;;;;;;;;;;;;5115170;27;19912;-57
2022/10/29 04:30:52;;;;;;;;;;;;;;;;;;5123211;27;19923;-57
2022/10/29 04:33:17;;;;;;;;;;;;;;;;;;5130608;27;19947;-57
2022/10/29 04:35:42;;;;;;;;;;;;;;;;;;5112551;27;19915;-57
2022/10/29 04:38:07;;;;;;;;;;;;;;;;;;5112100;27;20789;-57
2022/10/29 04:40:32;;;;;;;;;;;;;;;;;;5111684;28;19951;-56
2022/10/29 04:42:57;;;;;;;;;;;;;;;;;;5127065;27;19916;-56
2022/10/29 04:45:22;;;;;;;;;;;;;;;;;;5112564;27;20306;-57
2022/10/29 04:47:47;;;;;;;;;;;;;;;;;;5123992;27;19912;-57
2022/10/29 04:50:12;;;;;;;;;;;;;;;;;;5117183;27;20378;-57
2022/10/29 04:52:37;;;;;;;;;;;;;;;;;;5120043;27;19918;-57
2022/10/29 04:55:03;;;;;;;;;;;;;;;;;;5119000;27;19918;-58
2022/10/29 04:57:28;;;;;;;;;;;;;;;;;;5114910;27;19912;-57
2022/10/29 04:59:53;;;;;;;;;;;;;;;;;;5120073;27;19919;-57
2022/10/29 05:02:18;;;;;;;;;;;;;;;;;;5122217;27;20453;-57
2022/10/29 05:04:43;;;;;;;;;;;;;;;;;;5114206;27;19917;-57
2022/10/29 05:07:08;;;;;;;;;;;;;;;;;;5123969;27;19964;-57
2022/10/29 05:09:33;;;;;;;;;;;;;;;;;;5113133;28;20294;-57
2022/10/29 05:11:58;;;;;;;;;;;;;;;;;;5112901;28;19918;-57
2022/10/29 05:14:23;;;;;;;;;;;;;;;;;;5107708;28;19918;-57
2022/10/29 05:16:48;;;;;;;;;;;;;;;;;;5110904;28;19962;-57
2022/10/29 05:19:13;;;;;;;;;;;;;;;;;;5113263;28;19919;-58
2022/10/29 05:21:38;;;;;;;;;;;;;;;;;;5111088;28;19915;-56
2022/10/29 05:24:04;;;;;;;;;;;;;;;;;;5111367;28;20275;-57
2022/10/29 05:26:29;;;;;;;;;;;;;;;;;;5111158;28;19911;-57
2022/10/29 05:28:54;;;;;;;;;;;;;;;;;;5115518;28;19918;-57
2022/10/29 05:31:19;;;;;;;;;;;;;;;;;;5111205;28;20139;-57
2022/10/29 05:33:44;;;;;;;;;;;;;;;;;;5111348;28;19919;-57
2022/10/29 05:36:09;;;;;;;;;;;;;;;;;;5112416;28;19922;-58
2022/10/29 05:38:34;;;;;;;;;;;;;;;;;;5118014;28;19924;-58
2022/10/29 05:40:59;;;;;;;;;;;;;;;;;;5121906;28;20010;-58
2022/10/29 05:43:24;;;;;;;;;;;;;;;;;;5124160;28;19911;-56
2022/10/29 05:45:49;;;;;;;;;;;;;;;;;;5119878;28;20393;-58
2022/10/29 05:48:14;;;;;;;;;;;;;;;;;;5133141;27;19911;-57
2022/10/29 05:50:41;;;;;;;;;;;;;;;;;;5135033;27;21131;-58
2022/10/29 05:53:06;;;;;;;;;;;;;;;;;;5135826;27;20348;-58
2022/10/29 05:55:31;;;;;;;;;;;;;;;;;;5121737;27;19908;-57
2022/10/29 05:57:57;;;;;;;;;;;;;;;;;;5113832;27;19973;-57
2022/10/29 06:00:22;;;;;;;;;;;;;;;;;;5117365;27;19922;-58
2022/10/29 06:02:47;;;;;;;;;;;;;;;;;;5124196;27;20468;-58
2022/10/29 06:05:12;;;;;;;;;;;;;;;;;;5117939;27;20404;-58
2022/10/29 06:07:37;;;;;;;;;;;;;;;;;;5117564;27;19911;-57
2022/10/29 06:10:02;;;;;;;;;;;;;;;;;;5119353;27;19924;-57
2022/10/29 06:12:27;;;;;;;;;;;;;;;;;;5125383;27;19911;-57
2022/10/29 06:14:52;;;;;;;;;;;;;;;;;;5124520;27;19912;-60
2022/10/29 06:17:17;;;;;;;;;;;;;;;;;;5123693;27;19959;-58
2022/10/29 06:19:42;;;;;;;;;;;;;;;;;;5123201;27;19915;-58
2022/10/29 06:22:07;;;;;;;;;;;;;;;;;;5122079;27;19956;-57
2022/10/29 06:24:32;;;;;;;;;;;;;;;;;;5119471;27;20251;-57
2022/10/29 06:26:57;;;;;;;;;;;;;;;;;;5129778;27;19923;-57
2022/10/29 06:29:23;;;;;;;;;;;;;;;;;;5118204;27;19946;-57
2022/10/29 06:31:48;;;;;;;;;;;;;;;;;;5121913;27;19920;-57
2022/10/29 06:34:13;;;;;;;;;;;;;;;;;;5122903;27;20522;-57
2022/10/29 06:36:38;;;;;;;;;;;;;;;;;;5122433;27;19912;-57
2022/10/29 06:39:03;;;;;;;;;;;;;;;;;;5126454;27;19923;-57
2022/10/29 06:41:28;;;;;;;;;;;;;;;;;;5115597;27;19919;-57
2022/10/29 06:43:53;;;;;;;;;;;;;;;;;;5120084;27;19965;-57
2022/10/29 06:46:18;;;;;;;;;;;;;;;;;;5117565;27;20344;-57
2022/10/29 06:48:44;;;;;;;;;;;;;;;;;;5117784;27;20394;-58
2022/10/29 06:51:09;;;;;;;;;;;;;;;;;;5112373;27;19965;-58
2022/10/29 06:53:34;;;;;;;;;;;;;;;;;;5117782;27;19915;-58
2022/10/29 06:55:59;;;;;;;;;;;;;;;;;;5117340;27;19916;-58
2022/10/29 06:58:24;;;;;;;;;;;;;;;;;;5119223;27;19931;-59
2022/10/29 07:00:49;;;;;;;;;;;;;;;;;;5120038;27;20066;-58
2022/10/29 07:03:14;;;;;;;;;;;;;;;;;;5129022;27;20006;-58
2022/10/29 07:05:39;;;;;;;;;;;;;;;;;;5124177;27;20002;-58
2022/10/29 07:08:05;;;;;;;;;;;;;;;;;;5118463;27;19948;-57
2022/10/29 07:10:30;;;;;;;;;;;;;;;;;;5125436;27;20421;-58
2022/10/29 07:12:55;;;;;;;;;;;;;;;;;;5131593;27;19907;-59
2022/10/29 07:15:20;;;;;;;;;;;;;;;;;;5120215;27;19916;-58
2022/10/29 07:17:45;;;;;;;;;;;;;;;;;;5118419;27;19919;-58
2022/10/29 07:20:10;;;;;;;;;;;;;;;;;;5127814;27;19923;-58
2022/10/29 07:22:35;;;;;;;;;;;;;;;;;;5120422;27;19922;-58
2022/10/29 07:25:00;;;;;;;;;;;;;;;;;;5118866;27;19915;-58
2022/10/29 07:27:25;;;;;;;;;;;;;;;;;;5131184;27;19918;-58
2022/10/29 07:29:50;;;;;;;;;;;;;;;;;;5130062;27;19912;-58
2022/10/29 07:32:15;;;;;;;;;;;;;;;;;;5113673;27;19923;-58
2022/10/29 07:34:41;;;;;;;;;;;;;;;;;;5111989;27;20429;-60
2022/10/29 07:37:06;;;;;;;;;;;;;;;;;;5124030;27;19912;-58
2022/10/29 07:39:31;;;;;;;;;;;;;;;;;;5124944;27;19919;-59
2022/10/29 07:41:56;;;;;;;;;;;;;;;;;;5122477;27;19907;-58
2022/10/29 07:44:21;;;;;;;;;;;;;;;;;;5133269;27;19915;-58
2022/10/29 07:46:46;;;;;;;;;;;;;;;;;;5133100;27;19903;-58
2022/10/29 07:49:11;;;;;;;;;;;;;;;;;;5133581;27;19907;-58
2022/10/29 07:51:36;;;;;;;;;;;;;;;;;;5115886;27;20004;-58
2022/10/29 07:54:01;;;;;;;;;;;;;;;;;;5130909;27;19912;-58
2022/10/29 07:56:26;;;;;;;;;;;;;;;;;;5124593;27;20303;-58
2022/10/29 07:58:51;;;;;;;;;;;;;;;;;;5125485;27;19915;-58
2022/10/29 08:01:16;;;;;;;;;;;;;;;;;;5124833;27;19950;-58
2022/10/29 08:03:42;;;;;;;;;;;;;;;;;;5117740;27;20005;-57
2022/10/29 08:06:07;;;;;;;;;;;;;;;;;;5123013;27;19916;-58
2022/10/29 08:08:33;;;;;;;;;;;;;;;;;;5113351;27;19955;-58
2022/10/29 08:10:58;;;;;;;;;;;;;;;;;;5111411;27;20268;-57
2022/10/29 08:13:24;;;;;;;;;;;;;;;;;;5111824;28;19919;-58
2022/10/29 08:15:49;;;;;;;;;;;;;;;;;;5111711;28;19915;-56
2022/10/29 08:18:14;;;;;;;;;;;;;;;;;;5114154;27;20538;-57
2022/10/29 08:20:39;;;;;;;;;;;;;;;;;;5132421;27;19907;-57
2022/10/29 08:23:04;;;;;;;;;;;;;;;;;;5124499;27;20365;-56
2022/10/29 08:25:29;;;;;;;;;;;;;;;;;;5126772;27;19911;-56
2022/10/29 08:27:54;;;;;;;;;;;;;;;;;;5112996;27;19915;-57
2022/10/29 08:30:19;;;;;;;;;;;;;;;;;;5121135;27;20055;-56
2022/10/29 08:32:45;;;;;;;;;;;;;;;;;;5127885;27;20810;-57
2022/10/29 08:35:10;;;;;;;;;;;;;;;;;;5128716;27;19915;-57
2022/10/29 08:37:35;;;;;;;;;;;;;;;;;;5126221;27;19915;-59
2022/10/29 08:40:00;;;;;;;;;;;;;;;;;;5109964;27;19919;-56
2022/10/29 08:42:26;;;;;;;;;;;;;;;;;;5107986;28;19915;-57
2022/10/29 08:44:51;;;;;;;;;;;;;;;;;;5108331;28;19919;-56
2022/10/29 08:47:19;;;;;;;;;;;;;;;;;;5108128;28;19981;-57
2022/10/29 08:49:44;;;;;;;;;;;;;;;;;;5108971;27;19920;-59
2022/10/29 08:52:09;;;;;;;;;;;;;;;;;;5108472;28;19930;-58
2022/10/29 08:54:34;;;;;;;;;;;;;;;;;;5110808;27;19967;-57
2022/10/29 08:56:59;;;;;;;;;;;;;;;;;;5107698;28;20402;-57
2022/10/29 08:59:24;;;;;;;;;;;;;;;;;;5113161;27;19930;-58
2022/10/29 09:01:49;;;;;;;;;;;;;;;;;;5130477;27;19960;-56
2022/10/29 09:04:15;;;;;;;;;;;;;;;;;;5124656;27;20405;-55
2022/10/29 09:06:40;;;;;;;;;;;;;;;;;;5110685;28;20358;-55
2022/10/29 09:09:05;;;;;;;;;;;;;;;;;;5110004;28;19915;-54
2022/10/29 09:11:30;;;;;;;;;;;;;;;;;;5128482;28;19938;-54
2022/10/29 09:13:55;;;;;;;;;;;;;;;;;;5126908;28;20381;-54
2022/10/29 09:16:20;;;;;;;;;;;;;;;;;;5110504;28;19912;-54
2022/10/29 09:18:45;;;;;;;;;;;;;;;;;;5113921;28;19970;-54
2022/10/29 09:21:10;;;;;;;;;;;;;;;;;;5120895;28;19975;-53
2022/10/29 09:23:35;;;;;;;;;;;;;;;;;;5119430;27;20354;-54
2022/10/29 09:26:01;;;;;;;;;;;;;;;;;;5124026;27;19916;-54
2022/10/29 09:28:26;;;;;;;;;;;;;;;;;;5131106;27;19912;-55
2022/10/29 09:30:51;;;;;;;;;;;;;;;;;;5135364;27;19915;-54
2022/10/29 09:33:16;;;;;;;;;;;;;;;;;;5120868;27;19911;-54
2022/10/29 09:35:43;;;;;;;;;;;;;;;;;;5119071;27;19916;-53
2022/10/29 09:38:08;;;;;;;;;;;;;;;;;;5125451;27;20033;-53
2022/10/29 09:40:33;;;;;;;;;;;;;;;;;;5120938;27;20128;-53
2022/10/29 09:42:58;;;;;;;;;;;;;;;;;;5122174;27;19919;-54
2022/10/29 09:45:23;;;;;;;;;;;;;;;;;;5131003;27;20294;-54
2022/10/29 09:47:48;;;;;;;;;;;;;;;;;;5128104;27;19994;-54
2022/10/29 09:50:13;;;;;;;;;;;;;;;;;;5123762;27;19991;-54
2022/10/29 09:52:39;;;;;;;;;;;;;;;;;;5115440;27;19912;-54
2022/10/29 09:55:04;;;;;;;;;;;;;;;;;;5114349;27;19911;-54
2022/10/29 09:57:29;;;;;;;;;;;;;;;;;;5120340;27;19919;-54
2022/10/29 09:59:54;;;;;;;;;;;;;;;;;;5119917;27;19942;-54
2022/10/29 10:02:19;;;;;;;;;;;;;;;;;;5115214;28;20372;-54
2022/10/29 10:04:44;;;;;;;;;;;;;;;;;;5115916;27;19915;-55
2022/10/29 10:07:09;;;;;;;;;;;;;;;;;;5122255;27;19916;-54
2022/10/29 10:09:34;;;;;;;;;;;;;;;;;;5125581;27;19927;-54
2022/10/29 10:11:59;;;;;;;;;;;;;;;;;;5133626;27;19968;-54
2022/10/29 10:14:26;;;;;;;;;;;;;;;;;;5134542;27;19915;-54
2022/10/29 10:16:51;;;;;;;;;;;;;;;;;;5134343;27;19918;-54
2022/10/29 10:19:16;;;;;;;;;;;;;;;;;;5132909;27;19915;-53
2022/10/29 10:21:41;;;;;;;;;;;;;;;;;;5132451;27;19915;-54
2022/10/29 10:24:06;;;;;;;;;;;;;;;;;;5098085;27;19915;-54
2022/10/29 10:26:31;;;;;;;;;;;;;;;;;;5125557;27;19915;-54
2022/10/29 10:28:56;;;;;;;;;;;;;;;;;;5134785;27;19994;-54
2022/10/29 10:31:21;;;;;;;;;;;;;;;;;;5133198;27;19923;-54
2022/10/29 10:33:47;;;;;;;;;;;;;;;;;;5134420;27;20082;-54
2022/10/29 10:36:12;;;;;;;;;;;;;;;;;;5134593;27;20286;-54
2022/10/29 10:38:37;;;;;;;;;;;;;;;;;;5134440;27;20038;-54
2022/10/29 10:41:02;;;;;;;;;;;;;;;;;;5133049;27;20276;-55
2022/10/29 10:43:27;;;;;;;;;;;;;;;;;;5115751;27;19943;-54
2022/10/29 10:45:52;;;;;;;;;;;;;;;;;;5113934;28;19914;-54
2022/10/29 10:48:17;;;;;;;;;;;;;;;;;;5113663;28;19908;-53
2022/10/29 10:50:42;;;;;;;;;;;;;;;;;;5113799;28;20358;-53
2022/10/29 10:53:07;;;;;;;;;;;;;;;;;;5117996;27;19916;-53
2022/10/29 10:55:32;;;;;;;;;;;;;;;;;;5134581;27;19954;-54
2022/10/29 10:57:57;;;;;;;;;;;;;;;;;;5130158;27;21612;-54
2022/10/29 11:00:22;;;;;;;;;;;;;;;;;;5113646;28;19912;-54
2022/10/29 11:02:48;;;;;;;;;;;;;;;;;;5128219;27;19918;-54
2022/10/29 11:05:13;;;;;;;;;;;;;;;;;;5124646;27;19919;-54
2022/10/29 11:07:38;;;;;;;;;;;;;;;;;;5113433;28;20416;-54
2022/10/29 11:10:03;;;;;;;;;;;;;;;;;;5113305;28;19915;-53
2022/10/29 11:12:28;;;;;;;;;;;;;;;;;;5113299;27;19934;-54
2022/10/29 11:14:53;;;;;;;;;;;;;;;;;;5113337;28;19997;-54
2022/10/29 11:17:18;;;;;;;;;;;;;;;;;;5113390;28;19907;-53
2022/10/29 11:19:43;;;;;;;;;;;;;;;;;;5113185;28;19911;-54
2022/10/29 11:22:08;;;;;;;;;;;;;;;;;;5113655;27;20362;-55
2022/10/29 11:24:33;;;;;;;;;;;;;;;;;;5130861;27;19923;-54
2022/10/29 11:26:59;;;;;;;;;;;;;;;;;;5133367;27;19914;-54
2022/10/29 11:29:24;;;;;;;;;;;;;;;;;;5132920;27;20315;-54
2022/10/29 11:31:49;;;;;;;;;;;;;;;;;;5131596;27;19919;-52
2022/10/29 11:34:14;;;;;;;;;;;;;;;;;;5133491;27;19929;-52
2022/10/29 11:36:39;;;;;;;;;;;;;;;;;;5095458;28;19919;-52
2022/10/29 11:39:04;;;;;;;;;;;;;;;;;;5111877;28;19957;-52
2022/10/29 11:41:29;;;;;;;;;;;;;;;;;;5112914;28;19908;-52
2022/10/29 11:43:54;;;;;;;;;;;;;;;;;;5112763;28;19908;-54
2022/10/29 11:46:20;;;;;;;;;;;;;;;;;;5113930;28;20313;-54
2022/10/29 11:48:45;;;;;;;;;;;;;;;;;;5112433;28;19965;-53
2022/10/29 11:51:10;;;;;;;;;;;;;;;;;;5112563;28;20002;-54
2022/10/29 11:53:35;;;;;;;;;;;;;;;;;;5112505;28;19963;-53
2022/10/29 11:56:00;;;;;;;;;;;;;;;;;;5115350;27;19919;-53
2022/10/29 11:58:25;;;;;;;;;;;;;;;;;;5132852;27;19946;-53
2022/10/29 12:00:50;;;;;;;;;;;;;;;;;;5133114;27;20365;-53
2022/10/29 12:03:15;;;;;;;;;;;;;;;;;;5132917;27;19914;-53
2022/10/29 12:05:40;;;;;;;;;;;;;;;;;;5130668;27;19943;-54
2022/10/29 12:08:05;;;;;;;;;;;;;;;;;;5131405;27;20377;-53
2022/10/29 12:10:31;;;;;;;;;;;;;;;;;;5132658;27;19907;-53
2022/10/29 12:12:56;;;;;;;;;;;;;;;;;;5124536;27;20409;-53
2022/10/29 12:15:21;;;;;;;;;;;;;;;;;;5127181;27;20408;-53
2022/10/29 12:17:46;;;;;;;;;;;;;;;;;;5120553;27;20014;-52
2022/10/29 12:20:11;;;;;;;;;;;;;;;;;;5109795;27;20003;-53
2022/10/29 12:22:37;;;;;;;;;;;;;;;;;;5116916;27;20427;-53
2022/10/29 12:25:02;;;;;;;;;;;;;;;;;;5115985;27;19916;-53
2022/10/29 12:27:27;;;;;;;;;;;;;;;;;;5108432;27;20438;-54
2022/10/29 12:29:52;;;;;;;;;;;;;;;;;;5109455;27;19915;-53
2022/10/29 12:32:17;;;;;;;;;;;;;;;;;;5103699;28;19993;-53
2022/10/29 12:34:42;;;;;;;;;;;;;;;;;;5122412;27;20258;-52
2022/10/29 12:37:07;;;;;;;;;;;;;;;;;;5108233;28;19939;-53
2022/10/29 12:39:32;;;;;;;;;;;;;;;;;;5111494;27;19930;-53
2022/10/29 12:41:57;;;;;;;;;;;;;;;;;;5113367;27;20003;-53
2022/10/29 12:44:22;;;;;;;;;;;;;;;;;;5117209;27;19988;-54
2022/10/29 12:46:48;;;;;;;;;;;;;;;;;;5116597;27;19919;-54
2022/10/29 12:49:13;;;;;;;;;;;;;;;;;;5127811;27;20417;-53
2022/10/29 12:51:38;;;;;;;;;;;;;;;;;;5124249;27;19926;-54
2022/10/29 12:54:03;;;;;;;;;;;;;;;;;;5123115;27;20002;-54
2022/10/29 12:56:28;;;;;;;;;;;;;;;;;;5104692;28;19912;-54
2022/10/29 12:58:53;;;;;;;;;;;;;;;;;;5122795;27;19998;-54
2022/10/29 13:01:18;;;;;;;;;;;;;;;;;;5110918;27;19946;-54
2022/10/29 13:03:43;;;;;;;;;;;;;;;;;;5128779;27;19986;-54
2022/10/29 13:06:08;;;;;;;;;;;;;;;;;;5118922;27;19912;-54
2022/10/29 13:08:34;;;;;;;;;;;;;;;;;;5128551;27;19911;-54
2022/10/29 13:10:59;;;;;;;;;;;;;;;;;;5122363;27;19958;-54
2022/10/29 13:13:24;;;;;;;;;;;;;;;;;;5112659;28;19927;-54
2022/10/29 13:15:49;;;;;;;;;;;;;;;;;;5121620;28;20374;-53
2022/10/29 13:18:14;;;;;;;;;;;;;;;;;;5128339;28;20658;-52
2022/10/29 13:20:39;;;;;;;;;;;;;;;;;;5124881;28;19919;-52
2022/10/29 13:23:04;;;;;;;;;;;;;;;;;;5110058;28;19934;-52
2022/10/29 13:25:29;;;;;;;;;;;;;;;;;;5109882;28;19989;-52
2022/10/29 13:27:54;;;;;;;;;;;;;;;;;;5123413;28;19912;-52
2022/10/29 13:30:19;;;;;;;;;;;;;;;;;;5131391;28;19915;-53
2022/10/29 13:32:44;;;;;;;;;;;;;;;;;;5129689;28;20406;-53
2022/10/29 13:35:09;;;;;;;;;;;;;;;;;;5121237;28;19918;-53
2022/10/29 13:37:35;;;;;;;;;;;;;;;;;;5129231;28;19915;-53
2022/10/29 13:40:00;;;;;;;;;;;;;;;;;;5110811;28;19916;-53
2022/10/29 13:42:25;;;;;;;;;;;;;;;;;;5110720;28;19912;-53
2022/10/29 13:44:50;;;;;;;;;;;;;;;;;;5110986;28;20010;-53
2022/10/29 13:47:15;;;;;;;;;;;;;;;;;;5107628;28;19952;-53
2022/10/29 13:49:40;;;;;;;;;;;;;;;;;;5111256;28;20208;-53
2022/10/29 13:52:05;;;;;;;;;;;;;;;;;;5126742;28;19922;-53
2022/10/29 13:54:30;;;;;;;;;;;;;;;;;;5119345;28;19951;-53
2022/10/29 13:56:55;;;;;;;;;;;;;;;;;;5117141;28;19912;-53
2022/10/29 13:59:21;;;;;;;;;;;;;;;;;;5094937;28;20387;-53
2022/10/29 14:01:46;;;;;;;;;;;;;;;;;;5123359;28;19941;-53
2022/10/29 14:04:11;;;;;;;;;;;;;;;;;;5125520;28;19923;-53
2022/10/29 14:06:36;;;;;;;;;;;;;;;;;;5121826;28;19915;-53
2022/10/29 14:09:01;;;;;;;;;;;;;;;;;;5112451;27;19924;-53
2022/10/29 14:11:26;;;;;;;;;;;;;;;;;;5134747;27;19912;-53
2022/10/29 14:13:51;;;;;;;;;;;;;;;;;;5134879;27;19908;-53
2022/10/29 14:16:19;;;;;;;;;;;;;;;;;;5134891;27;19934;-53
2022/10/29 14:18:44;;;;;;;;;;;;;;;;;;5132636;27;19919;-56
2022/10/29 14:21:09;;;;;;;;;;;;;;;;;;5131852;27;19912;-53
2022/10/29 14:23:34;;;;;;;;;;;;;;;;;;5134507;27;19919;-53
2022/10/29 14:26:01;;;;;;;;;;;;;;;;;;5134730;27;20381;-53
2022/10/29 14:28:26;;;;;;;;;;;;;;;;;;5134431;27;19998;-53
2022/10/29 14:30:52;;;;;;;;;;;;;;;;;;5130997;27;20316;-52
2022/10/29 14:33:17;;;;;;;;;;;;;;;;;;5134291;27;19903;-53
2022/10/29 14:35:42;;;;;;;;;;;;;;;;;;5134455;27;19907;-53
2022/10/29 14:38:07;;;;;;;;;;;;;;;;;;5134048;27;20374;-53
2022/10/29 14:40:32;;;;;;;;;;;;;;;;;;5132693;27;19915;-53
2022/10/29 14:42:57;;;;;;;;;;;;;;;;;;5134265;27;19907;-53
2022/10/29 14:45:22;;;;;;;;;;;;;;;;;;5134292;27;19961;-53
2022/10/29 14:47:47;;;;;;;;;;;;;;;;;;5134249;27;20006;-53
2022/10/29 14:50:12;;;;;;;;;;;;;;;;;;5123138;27;19963;-53
2022/10/29 14:52:38;;;;;;;;;;;;;;;;;;5117660;27;19916;-53
2022/10/29 14:55:03;;;;;;;;;;;;;;;;;;5112161;27;19911;-53
2022/10/29 14:57:28;;;;;;;;;;;;;;;;;;5110811;27;20370;-54
2022/10/29 14:59:53;;;;;;;;;;;;;;;;;;5117042;27;19915;-53
2022/10/29 15:02:18;;;;;;;;;;;;;;;;;;5123362;27;20383;-54
2022/10/29 15:04:43;;;;;;;;;;;;;;;;;;5120462;27;19916;-53
2022/10/29 15:07:08;;;;;;;;;;;;;;;;;;5105428;28;19915;-54
2022/10/29 15:09:33;;;;;;;;;;;;;;;;;;5107344;28;19947;-53
2022/10/29 15:11:59;;;;;;;;;;;;;;;;;;5109521;27;20286;-54
2022/10/29 15:14:24;;;;;;;;;;;;;;;;;;5115205;27;19916;-53
2022/10/29 15:16:49;;;;;;;;;;;;;;;;;;5125179;27;20436;-54
2022/10/29 15:19:14;;;;;;;;;;;;;;;;;;5124110;27;20314;-54
2022/10/29 15:21:39;;;;;;;;;;;;;;;;;;5121707;27;19922;-54
2022/10/29 15:24:05;;;;;;;;;;;;;;;;;;5133398;27;19960;-54
2022/10/29 15:26:30;;;;;;;;;;;;;;;;;;5118212;27;20278;-54
2022/10/29 15:28:55;;;;;;;;;;;;;;;;;;5120504;27;19918;-54
2022/10/29 15:31:20;;;;;;;;;;;;;;;;;;5116982;27;19947;-54
2022/10/29 15:33:45;;;;;;;;;;;;;;;;;;5122586;27;20298;-52
2022/10/29 15:36:10;;;;;;;;;;;;;;;;;;5126754;27;19911;-52
2022/10/29 15:38:35;;;;;;;;;;;;;;;;;;5113582;27;19958;-54
2022/10/29 15:41:01;;;;;;;;;;;;;;;;;;5112042;27;19912;-53
2022/10/29 15:43:26;;;;;;;;;;;;;;;;;;5130358;27;19916;-53
2022/10/29 15:45:51;;;;;;;;;;;;;;;;;;5114327;27;20398;-52
2022/10/29 15:48:16;;;;;;;;;;;;;;;;;;5116713;27;19912;-52
2022/10/29 15:50:41;;;;;;;;;;;;;;;;;;5129745;27;19923;-52
2022/10/29 15:53:08;;;;;;;;;;;;;;;;;;5132489;27;19950;-53
2022/10/29 15:55:33;;;;;;;;;;;;;;;;;;5128079;27;19935;-53
2022/10/29 15:57:59;;;;;;;;;;;;;;;;;;5124450;27;19984;-52
2022/10/29 16:00:24;;;;;;;;;;;;;;;;;;5124945;27;19976;-52
2022/10/29 16:02:49;;;;;;;;;;;;;;;;;;5111879;28;20325;-52
2022/10/29 16:05:14;;;;;;;;;;;;;;;;;;5117646;27;19919;-51
2022/10/29 16:07:39;;;;;;;;;;;;;;;;;;5124182;27;19923;-53
2022/10/29 16:10:04;;;;;;;;;;;;;;;;;;5125151;27;20815;-53
2022/10/29 16:12:29;;;;;;;;;;;;;;;;;;5107786;27;19912;-52
2022/10/29 16:14:54;;;;;;;;;;;;;;;;;;5124810;27;20014;-52
2022/10/29 16:17:19;;;;;;;;;;;;;;;;;;5125909;27;19912;-53
2022/10/29 16:19:45;;;;;;;;;;;;;;;;;;5121615;27;19920;-53
2022/10/29 16:22:10;;;;;;;;;;;;;;;;;;5112517;27;20060;-53
2022/10/29 16:24:35;;;;;;;;;;;;;;;;;;5109750;27;20041;-53
2022/10/29 16:27:00;;;;;;;;;;;;;;;;;;5112735;27;19920;-53
2022/10/29 16:29:25;;;;;;;;;;;;;;;;;;5126675;27;19943;-53
2022/10/29 16:31:50;;;;;;;;;;;;;;;;;;5111453;28;19920;-53